createdAt,value
2018-06-25T00:00:03.010Z,13.5
2018-06-25T00:05:02.324Z,13.5
2018-06-25T00:10:03.090Z,13.5
2018-06-25T00:15:02.386Z,13.5
2018-06-25T00:20:02.717Z,13.5
2018-06-25T00:25:05.525Z,13.5
2018-06-25T00:30:02.809Z,13.4
2018-06-25T00:35:03.093Z,13.4
2018-06-25T00:40:02.800Z,13.5
2018-06-25T00:45:08.155Z,13.3
2018-06-25T00:50:02.377Z,13.3
2018-06-25T00:55:07.715Z,13.3
2018-06-25T01:00:20.692Z,13.3
2018-06-25T01:05:07.439Z,13.2
2018-06-25T01:10:08.208Z,13.2
2018-06-25T01:15:02.432Z,13.2
2018-06-25T01:20:12.886Z,13.3
2018-06-25T01:25:03.096Z,13.3
2018-06-25T01:30:04.874Z,13.2
2018-06-25T01:35:02.670Z,13.2
2018-06-25T01:40:05.173Z,13.1
2018-06-25T01:45:05.244Z,13.1
2018-06-25T01:50:05.046Z,13.1
2018-06-25T01:55:02.851Z,13
2018-06-25T02:00:03.144Z,13
2018-06-25T02:05:05.009Z,12.7
2018-06-25T02:10:05.205Z,12.8
2018-06-25T02:15:02.937Z,12.8
2018-06-25T02:20:05.817Z,12.7
2018-06-25T02:25:02.538Z,12.7
2018-06-25T02:30:05.399Z,12.6
2018-06-25T02:35:08.246Z,12.5
2018-06-25T02:40:05.496Z,12.6
2018-06-25T02:45:08.288Z,12.5
2018-06-25T02:50:02.505Z,12.5
2018-06-25T02:55:10.569Z,12.4
2018-06-25T03:00:02.909Z,12.4
2018-06-25T03:05:03.242Z,12.5
2018-06-25T03:10:02.960Z,12.5
2018-06-25T03:15:03.259Z,12.4
2018-06-25T03:20:02.618Z,12.4
2018-06-25T03:25:02.986Z,12.4
2018-06-25T03:30:03.257Z,12.4
2018-06-25T03:35:02.537Z,12.4
2018-06-25T03:40:05.833Z,12.4
2018-06-25T03:45:02.568Z,12.4
2018-06-25T03:50:02.818Z,12.4
2018-06-25T03:55:03.119Z,12.4
2018-06-25T04:00:02.374Z,12.4
2018-06-25T04:05:10.269Z,12.4
2018-06-25T04:10:05.526Z,12.4
2018-06-25T04:15:05.816Z,12.3
2018-06-25T04:20:03.167Z,12.3
2018-06-25T04:25:12.554Z,12.3
2018-06-25T04:30:10.442Z,12.3
2018-06-25T04:35:03.126Z,12.3
2018-06-25T04:40:02.836Z,12.3
2018-06-25T04:45:05.747Z,12.2
2018-06-25T04:50:02.977Z,12.2
2018-06-25T04:55:05.826Z,12.3
2018-06-25T05:00:03.124Z,12.2
2018-06-25T05:05:02.439Z,12.2
2018-06-25T05:10:03.146Z,12.2
2018-06-25T05:15:07.502Z,12.3
2018-06-25T05:20:05.394Z,12.3
2018-06-25T05:25:05.801Z,12.3
2018-06-25T05:30:08.092Z,12.3
2018-06-25T05:35:03.316Z,12.3
2018-06-25T05:40:03.047Z,12.4
2018-06-25T05:45:04.869Z,12.4
2018-06-25T05:50:05.731Z,12.3
2018-06-25T05:55:05.025Z,12.3
2018-06-25T06:00:03.302Z,12.3
2018-06-25T06:05:02.654Z,12.3
2018-06-25T06:10:02.506Z,12.3
2018-06-25T06:15:05.338Z,12.3
2018-06-25T06:20:12.817Z,12.4
2018-06-25T06:25:05.736Z,12.5
2018-06-25T06:30:08.225Z,12.5
2018-06-25T06:35:07.545Z,12.6
2018-06-25T06:40:05.813Z,12.7
2018-06-25T06:45:10.116Z,12.8
2018-06-25T06:50:02.340Z,12.8
2018-06-25T06:55:15.287Z,12.9
2018-06-25T07:00:07.623Z,13
2018-06-25T07:05:05.473Z,13.1
2018-06-25T07:10:03.223Z,13.1
2018-06-25T07:15:02.605Z,13.1
2018-06-25T07:20:13.100Z,13.1
2018-06-25T07:25:03.297Z,13.1
2018-06-25T07:30:02.566Z,13.1
2018-06-25T07:35:18.106Z,13.1
2018-06-25T07:40:02.888Z,13.1
2018-06-25T07:45:03.197Z,13.1
2018-06-25T07:50:02.429Z,13
2018-06-25T07:55:02.830Z,13.1
2018-06-25T08:00:03.053Z,12.9
2018-06-25T08:05:07.440Z,13.2
2018-06-25T08:10:05.772Z,13.3
2018-06-25T08:15:05.037Z,13.4
2018-06-25T08:20:02.610Z,13.4
2018-06-25T08:25:05.564Z,13.6
2018-06-25T08:30:02.872Z,13.5
2018-06-25T08:35:05.034Z,13.8
2018-06-25T08:40:05.361Z,13.8
2018-06-25T08:45:03.212Z,13.8
2018-06-25T08:50:02.496Z,13.9
2018-06-25T08:55:20.603Z,14.1
2018-06-25T09:00:05.510Z,14.2
2018-06-25T09:05:02.309Z,14.2
2018-06-25T09:10:02.980Z,14.4
2018-06-25T09:15:02.417Z,14.6
2018-06-25T09:20:02.899Z,14.6
2018-06-25T09:25:13.292Z,14.8
2018-06-25T09:30:05.112Z,14.9
2018-06-25T09:35:02.978Z,14.8
2018-06-25T09:40:02.690Z,15.2
2018-06-25T09:45:05.577Z,15.3
2018-06-25T09:50:02.864Z,15.4
2018-06-25T09:55:10.807Z,15.5
2018-06-25T10:00:10.926Z,15.6
2018-06-25T10:05:05.158Z,15.8
2018-06-25T10:10:05.403Z,16.1
2018-06-25T10:15:02.411Z,16.1
2018-06-25T10:20:12.918Z,16.5
2018-06-25T10:25:05.641Z,16.7
2018-06-25T10:30:06.011Z,16.9
2018-06-25T10:35:09.973Z,17.1
2018-06-25T10:40:17.999Z,17.1
2018-06-25T10:45:05.758Z,17.2
2018-06-25T10:50:08.172Z,17.4
2018-06-25T10:55:02.408Z,17.4
2018-06-25T11:00:05.564Z,17.8
2018-06-25T11:05:07.733Z,18.1
2018-06-25T11:10:04.995Z,18.3
2018-06-25T11:15:02.800Z,18.3
2018-06-25T11:20:03.137Z,18.3
2018-06-25T11:25:07.551Z,18.5
2018-06-25T11:30:02.849Z,18.5
2018-06-25T11:35:08.245Z,19.2
2018-06-25T11:40:02.967Z,19.2
2018-06-25T11:45:03.327Z,19.3
2018-06-25T11:50:07.790Z,19.2
2018-06-25T11:55:08.109Z,19.4
2018-06-25T12:00:07.453Z,19.5
2018-06-25T12:05:05.289Z,20
2018-06-25T12:10:03.107Z,19.9
2018-06-25T12:15:07.585Z,20.3
2018-06-25T12:20:08.057Z,20.7
2018-06-25T12:25:08.364Z,20.8
2018-06-25T12:30:02.736Z,20.8
2018-06-25T12:35:10.770Z,21.1
2018-06-25T12:40:02.773Z,21.1
2018-06-25T12:45:05.686Z,21.4
2018-06-25T12:50:03.128Z,21.4
2018-06-25T12:55:05.066Z,21.4
2018-06-25T13:00:07.457Z,21.3
2018-06-25T13:05:05.365Z,21.2
2018-06-25T13:10:13.310Z,21.5
2018-06-25T13:15:02.694Z,21.4
2018-06-25T13:20:02.503Z,21.2
2018-06-25T13:25:07.915Z,22.2
2018-06-25T13:30:03.242Z,22.2
2018-06-25T13:35:05.177Z,23
2018-06-25T13:40:03.150Z,23
2018-06-25T13:45:02.636Z,23
2018-06-25T13:50:08.226Z,22.6
2018-06-25T13:55:05.222Z,22.8
2018-06-25T14:00:02.537Z,22.8
2018-06-25T14:05:02.963Z,23.2
2018-06-25T14:10:02.715Z,24
2018-06-25T14:15:05.706Z,25.4
2018-06-25T14:20:03.349Z,25.3
2018-06-25T14:25:05.212Z,24.6
2018-06-25T14:30:10.282Z,23.4
2018-06-25T14:35:03.120Z,23.4
2018-06-25T14:40:05.497Z,22.4
2018-06-25T14:45:02.426Z,22.4
2018-06-25T14:50:05.557Z,22.1
2018-06-25T14:55:04.986Z,21.9
2018-06-25T15:00:03.249Z,21.9
2018-06-25T15:05:02.617Z,21.8
2018-06-25T15:10:02.374Z,21.8
2018-06-25T15:15:07.913Z,22
2018-06-25T15:20:05.854Z,21.9
2018-06-25T15:25:02.798Z,21.9
2018-06-25T15:30:03.117Z,21.8
2018-06-25T15:35:02.473Z,21.8
2018-06-25T15:40:05.780Z,22
2018-06-25T15:45:02.619Z,22
2018-06-25T15:50:03.015Z,21.9
2018-06-25T15:55:04.924Z,21.7
2018-06-25T16:00:05.822Z,21.4
2018-06-25T16:05:02.627Z,21.3
2018-06-25T16:10:02.417Z,21.2
2018-06-25T16:15:07.967Z,21.3
2018-06-25T16:20:05.006Z,21.4
2018-06-25T16:25:02.780Z,21.3
2018-06-25T16:30:05.646Z,21.1
2018-06-25T16:35:05.065Z,21.1
2018-06-25T16:40:07.955Z,21
2018-06-25T16:45:02.359Z,21
2018-06-25T16:50:05.217Z,20.9
2018-06-25T16:55:08.226Z,20.8
2018-06-25T17:00:02.598Z,20.8
2018-06-25T17:05:07.956Z,21
2018-06-25T17:10:10.340Z,21
2018-06-25T17:15:03.158Z,21
2018-06-25T17:20:02.640Z,20.8
2018-06-25T17:25:05.424Z,20.4
2018-06-25T17:30:05.290Z,20.3
2018-06-25T17:35:05.648Z,20.1
2018-06-25T17:40:04.957Z,19.9
2018-06-25T17:45:05.537Z,19.7
2018-06-25T17:50:08.061Z,19.6
2018-06-25T17:55:04.987Z,19.5
2018-06-25T18:00:05.900Z,19.4
2018-06-25T18:05:02.658Z,19.4
2018-06-25T18:10:02.450Z,19.3
2018-06-25T18:15:02.797Z,19.1
2018-06-25T18:20:05.733Z,18.9
2018-06-25T18:25:02.537Z,18.9
2018-06-25T18:30:05.537Z,18.8
2018-06-25T18:35:12.500Z,18.7
2018-06-25T18:40:03.331Z,18.7
2018-06-25T18:45:02.670Z,18.7
2018-06-25T18:50:03.040Z,18.6
2018-06-25T18:55:03.301Z,18.5
2018-06-25T19:00:07.705Z,18.3
2018-06-25T19:05:02.962Z,18.3
2018-06-25T19:10:05.334Z,18.2
2018-06-25T19:15:05.709Z,18.1
2018-06-25T19:20:08.145Z,18
2018-06-25T19:25:04.972Z,17.8
2018-06-25T19:30:03.255Z,17.8
2018-06-25T19:35:02.692Z,17.8
2018-06-25T19:40:02.409Z,17.6
2018-06-25T19:45:23.046Z,17.4
2018-06-25T19:50:04.878Z,17.4
2018-06-25T19:55:05.287Z,17.2
2018-06-25T20:00:05.093Z,17.1
2018-06-25T20:05:10.512Z,17.1
2018-06-25T20:10:02.697Z,17.1
2018-06-25T20:15:02.957Z,17
2018-06-25T20:20:03.297Z,17
2018-06-25T20:25:03.047Z,17
2018-06-25T20:30:05.912Z,16.8
2018-06-25T20:35:05.126Z,16.7
2018-06-25T20:40:03.092Z,16.7
2018-06-25T20:45:04.984Z,16.8
2018-06-25T20:50:10.903Z,16.8
2018-06-25T20:55:05.115Z,16.8
2018-06-25T21:00:15.062Z,16.8
2018-06-25T21:05:02.719Z,16.8
2018-06-25T21:10:02.552Z,16.8
2018-06-25T21:15:07.933Z,16.7
2018-06-25T21:20:03.245Z,16.7
2018-06-25T21:25:02.575Z,16.7
2018-06-25T21:30:05.524Z,16.6
2018-06-25T21:35:03.180Z,16.6
2018-06-25T21:40:02.970Z,16.6
2018-06-25T21:45:08.303Z,16.5
2018-06-25T21:50:02.590Z,16.5
2018-06-25T21:55:05.459Z,16.5
2018-06-25T22:00:02.852Z,16.5
2018-06-25T22:05:03.130Z,16.5
2018-06-25T22:10:02.836Z,16.5
2018-06-25T22:15:05.773Z,16.4
2018-06-25T22:20:05.738Z,16.4
2018-06-25T22:25:04.994Z,16.4
2018-06-25T22:30:05.883Z,16.4
2018-06-25T22:35:05.237Z,16.4
2018-06-25T22:40:02.965Z,16.4
2018-06-25T22:45:02.322Z,16.3
2018-06-25T22:50:05.100Z,16.2
2018-06-25T22:55:02.857Z,16.2
2018-06-25T23:00:23.320Z,15.9
2018-06-25T23:05:02.596Z,15.9
2018-06-25T23:10:03.353Z,15.9
2018-06-25T23:15:15.255Z,15.7
2018-06-25T23:20:02.600Z,15.7
2018-06-25T23:25:07.900Z,15.5
2018-06-25T23:30:08.311Z,15.4
2018-06-25T23:35:10.181Z,15.3
2018-06-25T23:40:05.417Z,15.2
2018-06-25T23:45:03.211Z,15.2
2018-06-25T23:50:05.022Z,15
2018-06-25T23:55:02.776Z,15
